Time,TemperatureF,DewpointF,PressureIn,WindDirection,WindDirectionDegrees,WindSpeedMPH,WindSpeedGustMPH,Humidity,HourlyPrecipIn,Conditions,Clouds,dailyrainin,SolarRadiationWatts/m^2,SoftwareType,DateUTC
2013-03-07 00:01:00,24.0,20.0,-100.00,SSE,148,7.0,14.0,83,0.00,,,0.00,0.000000,,2013-03-07 07:01:00,
2013-03-07 00:11:00,24.0,20.0,-100.00,SSE,148,7.0,14.0,83,0.00,,,0.00,0.000000,,2013-03-07 07:11:00,
2013-03-07 00:21:00,24.0,20.0,-100.00,SSE,148,7.0,14.0,83,0.00,,,0.00,0.000000,,2013-03-07 07:21:00,
2013-03-07 00:53:00,24.0,20.0,-100.00,SSE,162,6.0,14.0,84,0.00,,,0.00,0.000000,,2013-03-07 07:53:00,
2013-03-07 01:02:00,24.0,20.0,-100.00,SSE,162,6.0,14.0,84,0.00,,,0.00,0.000000,,2013-03-07 08:02:00,
2013-03-07 01:12:00,24.0,20.0,-100.00,SSE,162,6.0,14.0,84,0.00,,,0.00,0.000000,,2013-03-07 08:12:00,
2013-03-07 01:22:00,24.0,20.0,-100.00,SSE,162,6.0,14.0,84,0.00,,,0.00,0.000000,,2013-03-07 08:22:00,
2013-03-07 01:45:00,23.0,20.0,-100.00,SSE,165,3.0,19.0,88,0.00,,,0.00,0.000000,,2013-03-07 08:45:00,
2013-03-07 01:54:00,23.0,20.0,-100.00,SSE,165,3.0,19.0,88,0.00,,,0.00,0.000000,,2013-03-07 08:54:00,
2013-03-07 02:03:00,23.0,20.0,-100.00,SSE,165,3.0,19.0,88,0.00,,,0.00,0.000000,,2013-03-07 09:03:00,
2013-03-07 02:13:00,23.0,20.0,-100.00,SSE,165,3.0,19.0,88,0.00,,,0.00,0.000000,,2013-03-07 09:13:00,
2013-03-07 02:22:00,23.0,20.0,-100.00,SSE,165,3.0,19.0,88,0.00,,,0.00,0.000000,,2013-03-07 09:22:00,
2013-03-07 02:53:00,21.0,18.0,-100.00,SSE,158,4.0,9.0,89,0.00,,,0.00,0.000000,,2013-03-07 09:53:00,
2013-03-07 03:03:00,21.0,18.0,-100.00,SSE,158,4.0,9.0,89,0.00,,,0.00,0.000000,,2013-03-07 10:03:00,
2013-03-07 03:13:00,21.0,18.0,-100.00,SSE,158,4.0,9.0,89,0.00,,,0.00,0.000000,,2013-03-07 10:13:00,
2013-03-07 03:23:00,21.0,18.0,-100.00,SSE,158,4.0,9.0,89,0.00,,,0.00,0.000000,,2013-03-07 10:23:00,
2013-03-07 03:53:00,21.0,19.0,-100.00,South,179,5.0,9.0,90,0.00,,,0.00,0.000000,,2013-03-07 10:53:00,
2013-03-07 04:03:00,21.0,19.0,-100.00,South,179,5.0,9.0,90,0.00,,,0.00,0.000000,,2013-03-07 11:03:00,
2013-03-07 04:12:00,21.0,19.0,-100.00,South,179,5.0,9.0,90,0.00,,,0.00,0.000000,,2013-03-07 11:12:00,
2013-03-07 04:23:00,21.0,19.0,-100.00,South,179,5.0,9.0,90,0.00,,,0.00,0.000000,,2013-03-07 11:23:00,
2013-03-07 04:54:00,21.0,19.0,-100.00,SE,146,2.0,9.0,91,0.00,,,0.00,0.000000,,2013-03-07 11:54:00,
2013-03-07 05:03:00,21.0,19.0,-100.00,SE,146,2.0,9.0,91,0.00,,,0.00,0.000000,,2013-03-07 12:03:00,
2013-03-07 05:12:00,21.0,19.0,-100.00,SE,146,2.0,9.0,91,0.00,,,0.00,0.000000,,2013-03-07 12:12:00,
2013-03-07 05:22:00,21.0,19.0,-100.00,SE,146,2.0,9.0,91,0.00,,,0.00,0.000000,,2013-03-07 12:22:00,
2013-03-07 05:43:00,21.0,19.0,-100.00,SSW,194,3.0,8.0,93,0.00,,,0.00,0.000000,,2013-03-07 12:43:00,
2013-03-07 05:53:00,21.0,19.0,-100.00,SSW,194,3.0,8.0,93,0.00,,,0.00,0.000000,,2013-03-07 12:53:00,
2013-03-07 06:02:00,21.0,19.0,-100.00,SSW,194,3.0,8.0,93,0.00,,,0.00,0.000000,,2013-03-07 13:02:00,
2013-03-07 06:12:00,21.0,19.0,-100.00,SSW,194,3.0,8.0,93,0.00,,,0.00,0.000000,,2013-03-07 13:12:00,
2013-03-07 06:22:00,21.0,19.0,-100.00,SSW,194,3.0,8.0,93,0.00,,,0.00,0.000000,,2013-03-07 13:22:00,
2013-03-07 06:42:00,20.0,18.0,-100.00,South,185,1.0,6.0,93,0.00,,,0.00,0.000000,,2013-03-07 13:42:00,
2013-03-07 06:53:00,20.0,18.0,-100.00,South,185,1.0,6.0,93,0.00,,,0.00,0.000000,,2013-03-07 13:53:00,
2013-03-07 07:02:00,20.0,18.0,-100.00,South,185,1.0,6.0,93,0.00,,,0.00,0.000000,,2013-03-07 14:02:00,
2013-03-07 07:12:00,20.0,18.0,-100.00,South,185,1.0,6.0,93,0.00,,,0.00,0.000000,,2013-03-07 14:12:00,
2013-03-07 07:22:00,20.0,18.0,-100.00,South,185,1.0,6.0,93,0.00,,,0.00,0.000000,,2013-03-07 14:22:00,
2013-03-07 07:43:00,18.0,16.0,-100.00,North,11,1.0,7.0,93,0.00,,,0.00,0.000000,,2013-03-07 14:43:00,
2013-03-07 07:54:00,18.0,16.0,-100.00,North,11,1.0,7.0,93,0.00,,,0.00,0.000000,,2013-03-07 14:54:00,
2013-03-07 08:03:00,18.0,16.0,-100.00,North,11,1.0,7.0,93,0.00,,,0.00,0.000000,,2013-03-07 15:03:00,
2013-03-07 08:12:00,18.0,16.0,-100.00,North,11,1.0,7.0,93,0.00,,,0.00,0.000000,,2013-03-07 15:12:00,
2013-03-07 08:22:00,18.0,16.0,-100.00,North,11,1.0,7.0,93,0.00,,,0.00,0.000000,,2013-03-07 15:22:00,
2013-03-07 08:53:00,19.0,14.0,-100.00,SW,217,6.0,7.0,79,0.00,,,0.00,20.000000,,2013-03-07 15:53:00,
2013-03-07 09:02:00,19.0,14.0,-100.00,SW,217,6.0,7.0,79,0.00,,,0.00,20.000000,,2013-03-07 16:02:00,
2013-03-07 09:12:00,19.0,14.0,-100.00,SW,217,6.0,7.0,79,0.00,,,0.00,20.000000,,2013-03-07 16:12:00,
2013-03-07 09:23:00,19.0,14.0,-100.00,SW,217,6.0,7.0,79,0.00,,,0.00,20.000000,,2013-03-07 16:23:00,
2013-03-07 09:53:00,25.0,15.0,-100.00,WSW,237,4.0,11.0,65,0.00,,,0.00,151.000000,,2013-03-07 16:53:00,
2013-03-07 10:02:00,25.0,15.0,-100.00,WSW,237,4.0,11.0,65,0.00,,,0.00,151.000000,,2013-03-07 17:02:00,
2013-03-07 10:12:00,25.0,15.0,-100.00,WSW,237,4.0,11.0,65,0.00,,,0.00,151.000000,,2013-03-07 17:12:00,
2013-03-07 10:22:00,25.0,15.0,-100.00,WSW,237,4.0,11.0,65,0.00,,,0.00,151.000000,,2013-03-07 17:22:00,
2013-03-07 10:54:00,33.0,18.0,-100.00,NE,45,3.0,11.0,53,0.00,,,0.00,329.000000,,2013-03-07 17:54:00,
2013-03-07 11:03:00,33.0,18.0,-100.00,NE,45,3.0,11.0,53,0.00,,,0.00,329.000000,,2013-03-07 18:03:00,
2013-03-07 11:12:00,33.0,18.0,-100.00,NE,45,3.0,11.0,53,0.00,,,0.00,329.000000,,2013-03-07 18:12:00,
2013-03-07 11:22:00,33.0,18.0,-100.00,NE,45,3.0,11.0,53,0.00,,,0.00,329.000000,,2013-03-07 18:22:00,
2013-03-07 11:53:00,38.0,23.0,-100.00,West,262,5.0,10.0,55,0.00,,,0.00,543.000000,,2013-03-07 18:53:00,
2013-03-07 12:03:00,38.0,23.0,-100.00,West,262,5.0,10.0,55,0.00,,,0.00,543.000000,,2013-03-07 19:03:00,
2013-03-07 12:12:00,38.0,23.0,-100.00,West,262,5.0,10.0,55,0.00,,,0.00,543.000000,,2013-03-07 19:12:00,
2013-03-07 12:23:00,38.0,23.0,-100.00,West,262,5.0,10.0,55,0.00,,,0.00,543.000000,,2013-03-07 19:23:00,
2013-03-07 12:53:00,39.0,28.0,-100.00,West,278,5.0,12.0,64,0.00,,,0.00,717.000000,,2013-03-07 19:53:00,
2013-03-07 13:02:00,39.0,28.0,-100.00,West,278,5.0,12.0,64,0.00,,,0.00,717.000000,,2013-03-07 20:02:00,
2013-03-07 13:13:00,39.0,28.0,-100.00,West,278,5.0,12.0,64,0.00,,,0.00,717.000000,,2013-03-07 20:13:00,
2013-03-07 13:22:00,39.0,28.0,-100.00,West,278,5.0,12.0,64,0.00,,,0.00,717.000000,,2013-03-07 20:22:00,
2013-03-07 13:54:00,40.0,28.0,-100.00,WNW,290,3.0,12.0,62,0.00,,,0.00,520.000000,,2013-03-07 20:54:00,
2013-03-07 14:02:00,40.0,28.0,-100.00,WNW,290,3.0,12.0,62,0.00,,,0.00,520.000000,,2013-03-07 21:02:00,
2013-03-07 14:12:00,40.0,28.0,-100.00,WNW,290,3.0,12.0,62,0.00,,,0.00,520.000000,,2013-03-07 21:12:00,
2013-03-07 14:22:00,40.0,28.0,-100.00,WNW,290,3.0,12.0,62,0.00,,,0.00,520.000000,,2013-03-07 21:22:00,
2013-03-07 14:53:00,42.0,30.0,-100.00,NW,323,4.0,12.0,61,0.00,,,0.00,511.000000,,2013-03-07 21:53:00,
2013-03-07 15:02:00,42.0,30.0,-100.00,NW,323,4.0,12.0,61,0.00,,,0.00,511.000000,,2013-03-07 22:02:00,
2013-03-07 15:12:00,42.0,30.0,-100.00,NW,323,4.0,12.0,61,0.00,,,0.00,511.000000,,2013-03-07 22:12:00,
2013-03-07 15:22:00,42.0,30.0,-100.00,NW,323,4.0,12.0,61,0.00,,,0.00,511.000000,,2013-03-07 22:22:00,
2013-03-07 15:54:00,42.0,31.0,-100.00,NW,315,5.0,11.0,64,0.06,,,0.06,621.000000,,2013-03-07 22:54:00,
2013-03-07 16:03:00,42.0,31.0,-100.00,NW,315,5.0,11.0,64,0.06,,,0.06,621.000000,,2013-03-07 23:03:00,
2013-03-07 16:13:00,42.0,31.0,-100.00,NW,315,5.0,11.0,64,0.06,,,0.06,621.000000,,2013-03-07 23:13:00,
2013-03-07 16:22:00,42.0,31.0,-100.00,NW,315,5.0,11.0,64,0.06,,,0.06,621.000000,,2013-03-07 23:22:00,
2013-03-07 16:54:00,42.0,33.0,-100.00,NW,321,2.0,10.0,70,0.14,,,0.20,458.000000,,2013-03-07 23:54:00,
2013-03-07 17:04:00,42.0,33.0,-100.00,NW,321,2.0,10.0,70,0.14,,,0.20,458.000000,,2013-03-08 00:04:00,
2013-03-07 17:13:00,42.0,33.0,-100.00,NW,321,2.0,10.0,70,0.14,,,0.20,458.000000,,2013-03-08 00:13:00,
2013-03-07 17:23:00,42.0,33.0,-100.00,NW,321,2.0,10.0,70,0.14,,,0.20,458.000000,,2013-03-08 00:23:00,
2013-03-07 17:54:00,39.0,33.0,-100.00,NW,305,2.0,9.0,78,0.06,,,0.26,318.000000,,2013-03-08 00:54:00,
2013-03-07 18:02:00,39.0,33.0,-100.00,NW,305,2.0,9.0,78,0.06,,,0.26,318.000000,,2013-03-08 01:02:00,
2013-03-07 18:11:00,39.0,33.0,-100.00,NW,305,2.0,9.0,78,0.06,,,0.26,318.000000,,2013-03-08 01:11:00,
2013-03-07 18:21:00,39.0,33.0,-100.00,NW,305,2.0,9.0,78,0.06,,,0.26,318.000000,,2013-03-08 01:21:00,
2013-03-07 18:42:00,35.0,33.0,-100.00,SW,222,1.0,7.0,93,0.01,,,0.27,91.000000,,2013-03-08 01:42:00,
2013-03-07 18:52:00,35.0,33.0,-100.00,SW,222,1.0,7.0,93,0.01,,,0.27,91.000000,,2013-03-08 01:52:00,
2013-03-07 19:01:00,35.0,33.0,-100.00,SW,222,1.0,7.0,93,0.01,,,0.27,91.000000,,2013-03-08 02:01:00,
2013-03-07 19:11:00,35.0,33.0,-100.00,SW,222,1.0,7.0,93,0.01,,,0.27,91.000000,,2013-03-08 02:11:00,
2013-03-07 19:21:00,35.0,33.0,-100.00,SW,222,1.0,7.0,93,0.01,,,0.27,91.000000,,2013-03-08 02:21:00,
2013-03-07 19:53:00,31.0,30.0,-100.00,SW,218,1.0,3.0,97,0.00,,,0.27,8.000000,,2013-03-08 02:53:00,
2013-03-07 20:02:00,31.0,30.0,-100.00,SW,218,1.0,3.0,97,0.00,,,0.27,8.000000,,2013-03-08 03:02:00,
2013-03-07 20:12:00,31.0,30.0,-100.00,SW,218,1.0,3.0,97,0.00,,,0.27,8.000000,,2013-03-08 03:12:00,
2013-03-07 20:22:00,31.0,30.0,-100.00,SW,218,1.0,3.0,97,0.00,,,0.27,8.000000,,2013-03-08 03:22:00,
2013-03-07 20:53:00,29.0,29.0,-100.00,SSE,157,0.0,2.0,98,0.00,,,0.27,0.000000,,2013-03-08 03:53:00,
2013-03-07 21:01:00,29.0,29.0,-100.00,SSE,157,0.0,2.0,98,0.00,,,0.27,0.000000,,2013-03-08 04:01:00,
2013-03-07 21:11:00,29.0,29.0,-100.00,SSE,157,0.0,2.0,98,0.00,,,0.27,0.000000,,2013-03-08 04:11:00,
2013-03-07 21:21:00,29.0,29.0,-100.00,SSE,157,0.0,2.0,98,0.00,,,0.27,0.000000,,2013-03-08 04:21:00,
2013-03-07 21:52:00,28.0,28.0,-100.00,WSW,239,1.0,2.0,98,0.00,,,0.27,0.000000,,2013-03-08 04:52:00,
2013-03-07 22:02:00,28.0,28.0,-100.00,WSW,239,1.0,2.0,98,0.00,,,0.27,0.000000,,2013-03-08 05:02:00,
2013-03-07 22:12:00,28.0,28.0,-100.00,WSW,239,1.0,2.0,98,0.00,,,0.27,0.000000,,2013-03-08 05:12:00,
2013-03-07 22:22:00,28.0,28.0,-100.00,WSW,239,1.0,2.0,98,0.00,,,0.27,0.000000,,2013-03-08 05:22:00,
2013-03-07 22:52:00,27.0,27.0,-100.00,SW,223,1.0,2.0,98,0.00,,,-99.99,0.000000,,2013-03-08 05:52:00,
2013-03-07 23:01:00,27.0,27.0,-100.00,SW,223,1.0,2.0,98,0.00,,,-99.99,0.000000,,2013-03-08 06:01:00,
2013-03-07 23:11:00,27.0,27.0,-100.00,SW,223,1.0,2.0,98,0.00,,,-99.99,0.000000,,2013-03-08 06:11:00,
2013-03-07 23:21:00,27.0,27.0,-100.00,SW,223,1.0,2.0,98,0.00,,,-99.99,0.000000,,2013-03-08 06:21:00,
2013-03-07 23:42:00,26.0,26.0,-100.00,SSW,210,0.0,5.0,98,0.00,,,0.27,0.000000,,2013-03-08 06:42:00,
2013-03-07 23:52:00,26.0,26.0,-100.00,SSW,210,0.0,5.0,98,0.00,,,0.27,0.000000,,2013-03-08 06:52:00,